Time,TemperatureF,DewpointF,PressureIn,WindDirection,WindDirectionDegrees,WindSpeedMPH,WindSpeedGustMPH,Humidity,HourlyPrecipIn,Conditions,Clouds,dailyrainin,SoftwareType,DateUTC
2013-08-10 00:04:00,67.9,64.5,30.00,WSW,242,2.0,2.0,89,0.00,,,0.00,Wunderground v.1.15,2013-08-10 05:04:00,
2013-08-10 00:09:00,67.9,64.5,30.00,WSW,244,2.0,2.0,89,0.00,,,0.00,Wunderground v.1.15,2013-08-10 05:09:00,
2013-08-10 00:14:00,68.0,64.6,30.00,WSW,240,2.0,3.0,89,0.00,,,0.00,Wunderground v.1.15,2013-08-10 05:14:00,
2013-08-10 00:19:00,68.1,64.7,30.00,WSW,250,2.0,3.0,89,0.00,,,0.00,Wunderground v.1.15,2013-08-10 05:19:00,
2013-08-10 00:24:00,68.3,64.9,30.00,WSW,244,2.0,2.0,89,0.00,,,0.00,Wunderground v.1.15,2013-08-10 05:24:00,
2013-08-10 00:30:00,68.5,65.1,30.00,WSW,257,2.0,4.0,89,0.00,,,0.00,Wunderground v.1.15,2013-08-10 05:30:00,
2013-08-10 00:35:00,68.6,65.2,30.00,West,262,3.0,4.0,89,0.00,,,0.00,Wunderground v.1.15,2013-08-10 05:35:00,
2013-08-10 00:40:00,68.5,65.1,30.00,WSW,258,3.0,3.0,89,0.00,,,0.00,Wunderground v.1.15,2013-08-10 05:40:00,
2013-08-10 00:45:00,68.4,65.0,30.00,WSW,258,2.0,3.0,89,0.00,,,0.00,Wunderground v.1.15,2013-08-10 05:45:00,
2013-08-10 00:50:00,68.3,64.9,30.00,West,261,2.0,3.0,89,0.00,,,0.00,Wunderground v.1.15,2013-08-10 05:50:00,
2013-08-10 00:55:00,68.2,64.8,30.00,West,263,3.0,5.0,89,0.00,,,0.00,Wunderground v.1.15,2013-08-10 05:55:00,
2013-08-10 01:00:00,68.2,64.8,30.00,West,259,3.0,3.0,89,0.00,,,0.00,Wunderground v.1.15,2013-08-10 06:00:00,
2013-08-10 01:06:00,68.1,64.7,30.00,West,260,2.0,3.0,89,0.00,,,0.00,Wunderground v.1.15,2013-08-10 06:06:00,
2013-08-10 01:11:00,68.2,64.8,30.00,WSW,254,2.0,3.0,89,0.00,,,0.00,Wunderground v.1.15,2013-08-10 06:11:00,
2013-08-10 01:16:00,68.2,64.8,30.01,WSW,255,3.0,4.0,89,0.00,,,0.00,Wunderground v.1.15,2013-08-10 06:16:00,
2013-08-10 01:21:00,68.3,64.9,30.01,West,265,3.0,4.0,89,0.00,,,0.00,Wunderground v.1.15,2013-08-10 06:21:00,
2013-08-10 01:26:00,68.2,64.8,30.01,WSW,253,3.0,4.0,89,0.00,,,0.00,Wunderground v.1.15,2013-08-10 06:26:00,
2013-08-10 01:32:00,68.1,64.7,30.01,WSW,246,2.0,2.0,89,0.00,,,0.00,Wunderground v.1.15,2013-08-10 06:32:00,
2013-08-10 01:37:00,68.0,64.6,30.01,WSW,242,2.0,2.0,89,0.00,,,0.00,Wunderground v.1.15,2013-08-10 06:37:00,
2013-08-10 01:43:00,67.8,64.4,30.01,SW,230,2.0,2.0,89,0.00,,,0.00,Wunderground v.1.15,2013-08-10 06:43:00,
2013-08-10 01:48:00,67.6,64.2,30.01,WSW,237,2.0,2.0,89,0.00,,,0.00,Wunderground v.1.15,2013-08-10 06:48:00,
2013-08-10 01:53:00,67.5,64.1,30.01,WSW,251,2.0,3.0,89,0.00,,,0.00,Wunderground v.1.15,2013-08-10 06:53:00,
2013-08-10 01:59:00,67.5,64.1,30.01,WSW,257,2.0,3.0,89,0.00,,,0.00,Wunderground v.1.15,2013-08-10 06:59:00,
2013-08-10 02:05:00,67.6,64.2,30.01,WSW,257,1.0,2.0,89,0.00,,,0.00,Wunderground v.1.15,2013-08-10 07:05:00,
2013-08-10 02:10:00,67.6,64.2,30.01,WSW,256,2.0,2.0,89,0.00,,,0.00,Wunderground v.1.15,2013-08-10 07:10:00,
2013-08-10 02:16:00,67.7,64.3,30.01,WSW,258,1.0,2.0,89,0.00,,,0.00,Wunderground v.1.15,2013-08-10 07:16:00,
2013-08-10 02:21:00,67.8,64.4,30.01,WSW,258,2.0,2.0,89,0.00,,,0.00,Wunderground v.1.15,2013-08-10 07:21:00,
2013-08-10 02:26:00,68.0,64.6,30.01,West,275,2.0,4.0,89,0.00,,,0.00,Wunderground v.1.15,2013-08-10 07:26:00,
2013-08-10 02:31:00,68.2,64.8,30.01,West,276,2.0,3.0,89,0.00,,,0.00,Wunderground v.1.15,2013-08-10 07:31:00,
2013-08-10 02:37:00,68.5,65.1,30.01,WNW,292,3.0,4.0,89,0.00,,,0.00,Wunderground v.1.15,2013-08-10 07:37:00,
2013-08-10 02:42:00,68.5,65.1,30.01,WNW,287,3.0,4.0,89,0.00,,,0.00,Wunderground v.1.15,2013-08-10 07:42:00,
2013-08-10 02:47:00,68.6,65.2,30.01,WNW,284,3.0,4.0,89,0.00,,,0.00,Wunderground v.1.15,2013-08-10 07:47:00,
2013-08-10 02:53:00,68.5,65.1,30.01,WNW,283,3.0,4.0,89,0.00,,,0.00,Wunderground v.1.15,2013-08-10 07:53:00,
2013-08-10 02:58:00,68.5,65.1,30.01,West,271,3.0,4.0,89,0.00,,,0.00,Wunderground v.1.15,2013-08-10 07:58:00,
2013-08-10 03:04:00,68.6,65.2,30.02,WNW,290,3.0,4.0,89,0.00,,,0.00,Wunderground v.1.15,2013-08-10 08:04:00,
2013-08-10 03:09:00,68.6,65.2,30.02,WNW,290,3.0,5.0,89,0.00,,,0.00,Wunderground v.1.15,2013-08-10 08:09:00,
2013-08-10 03:14:00,68.5,65.1,30.01,West,281,4.0,4.0,89,0.00,,,0.00,Wunderground v.1.15,2013-08-10 08:14:00,
2013-08-10 03:19:00,68.4,65.0,30.02,West,268,3.0,4.0,89,0.00,,,0.00,Wunderground v.1.15,2013-08-10 08:19:00,
2013-08-10 03:24:00,68.4,65.0,30.02,WNW,292,3.0,5.0,89,0.00,,,0.00,Wunderground v.1.15,2013-08-10 08:24:00,
2013-08-10 03:29:00,68.4,65.0,30.02,WNW,290,3.0,5.0,89,0.00,,,0.00,Wunderground v.1.15,2013-08-10 08:29:00,
2013-08-10 03:34:00,68.4,65.0,30.02,WNW,287,3.0,3.0,89,0.00,,,0.00,Wunderground v.1.15,2013-08-10 08:34:00,
2013-08-10 03:39:00,68.3,64.9,30.01,WNW,285,2.0,3.0,89,0.00,,,0.00,Wunderground v.1.15,2013-08-10 08:39:00,
2013-08-10 03:44:00,68.1,64.7,30.02,WNW,287,2.0,4.0,89,0.00,,,0.00,Wunderground v.1.15,2013-08-10 08:44:00,
2013-08-10 03:49:00,67.8,64.4,30.02,WNW,289,2.0,4.0,89,0.00,,,0.00,Wunderground v.1.15,2013-08-10 08:49:00,
2013-08-10 03:54:00,67.4,64.0,30.02,WNW,293,3.0,4.0,89,0.00,,,0.00,Wunderground v.1.15,2013-08-10 08:54:00,
2013-08-10 03:59:00,67.1,63.7,30.02,WNW,298,4.0,5.0,89,0.00,,,0.00,Wunderground v.1.15,2013-08-10 08:59:00,
2013-08-10 04:05:00,66.7,63.4,30.02,WNW,296,4.0,4.0,89,0.00,,,0.00,Wunderground v.1.15,2013-08-10 09:05:00,
2013-08-10 04:10:00,66.5,63.2,30.02,WNW,289,3.0,3.0,89,0.00,,,0.00,Wunderground v.1.15,2013-08-10 09:10:00,
2013-08-10 04:15:00,66.3,63.0,30.02,WNW,291,3.0,4.0,89,0.00,,,0.00,Wunderground v.1.15,2013-08-10 09:15:00,
2013-08-10 04:20:00,66.0,62.7,30.02,WNW,291,3.0,4.0,89,0.00,,,0.00,Wunderground v.1.15,2013-08-10 09:20:00,
2013-08-10 04:25:00,65.8,62.5,30.02,WNW,293,3.0,4.0,89,0.00,,,0.00,Wunderground v.1.15,2013-08-10 09:25:00,
2013-08-10 04:30:00,65.6,62.3,30.02,WNW,291,3.0,3.0,89,0.00,,,0.00,Wunderground v.1.15,2013-08-10 09:30:00,
2013-08-10 04:35:00,65.5,62.2,30.02,WNW,297,3.0,5.0,89,0.00,,,0.00,Wunderground v.1.15,2013-08-10 09:35:00,
2013-08-10 04:40:00,65.2,61.9,30.02,WNW,296,4.0,4.0,89,0.00,,,0.00,Wunderground v.1.15,2013-08-10 09:40:00,
2013-08-10 04:45:00,65.0,61.7,30.02,WNW,290,4.0,5.0,89,0.00,,,0.00,Wunderground v.1.15,2013-08-10 09:45:00,
2013-08-10 04:50:00,64.8,61.5,30.02,WNW,287,3.0,3.0,89,0.00,,,0.00,Wunderground v.1.15,2013-08-10 09:50:00,
2013-08-10 04:55:00,64.6,61.3,30.02,WNW,296,3.0,4.0,89,0.00,,,0.00,Wunderground v.1.15,2013-08-10 09:55:00,
2013-08-10 05:00:00,64.4,61.4,30.02,WNW,289,4.0,4.0,90,0.00,,,0.00,Wunderground v.1.15,2013-08-10 10:00:00,
2013-08-10 05:06:00,64.3,61.3,30.02,WNW,292,4.0,4.0,90,0.00,,,0.00,Wunderground v.1.15,2013-08-10 10:06:00,
2013-08-10 05:11:00,64.1,61.1,30.03,WNW,298,4.0,4.0,90,0.00,,,0.00,Wunderground v.1.15,2013-08-10 10:11:00,
2013-08-10 05:16:00,63.9,60.9,30.03,WNW,297,4.0,5.0,90,0.00,,,0.00,Wunderground v.1.15,2013-08-10 10:16:00,
2013-08-10 05:21:00,63.7,60.7,30.03,WNW,297,4.0,4.0,90,0.00,,,0.00,Wunderground v.1.15,2013-08-10 10:21:00,
2013-08-10 05:26:00,63.5,60.5,30.03,WNW,292,4.0,5.0,90,0.00,,,0.00,Wunderground v.1.15,2013-08-10 10:26:00,
2013-08-10 05:31:00,63.2,60.2,30.03,WNW,291,3.0,3.0,90,0.00,,,0.00,Wunderground v.1.15,2013-08-10 10:31:00,
2013-08-10 05:36:00,63.0,60.0,30.03,WNW,292,3.0,4.0,90,0.00,,,0.00,Wunderground v.1.15,2013-08-10 10:36:00,
2013-08-10 05:41:00,62.7,59.7,30.03,WNW,289,3.0,5.0,90,0.00,,,0.00,Wunderground v.1.15,2013-08-10 10:41:00,
2013-08-10 05:46:00,62.6,59.6,30.03,WNW,291,3.0,5.0,90,0.00,,,0.00,Wunderground v.1.15,2013-08-10 10:46:00,
2013-08-10 05:51:00,62.4,59.4,30.04,WNW,289,3.0,3.0,90,0.00,,,0.00,Wunderground v.1.15,2013-08-10 10:51:00,
2013-08-10 05:56:00,62.2,59.2,30.03,WNW,290,3.0,4.0,90,0.00,,,0.00,Wunderground v.1.15,2013-08-10 10:56:00,
2013-08-10 06:02:00,62.0,59.0,30.03,WNW,292,3.0,3.0,90,0.00,,,0.00,Wunderground v.1.15,2013-08-10 11:02:00,
2013-08-10 06:07:00,61.8,58.8,30.03,WNW,289,3.0,3.0,90,0.00,,,0.00,Wunderground v.1.15,2013-08-10 11:07:00,
2013-08-10 06:12:00,61.7,58.7,30.03,WNW,287,3.0,3.0,90,0.00,,,0.00,Wunderground v.1.15,2013-08-10 11:12:00,
2013-08-10 06:17:00,61.6,58.6,30.04,WNW,288,3.0,3.0,90,0.00,,,0.00,Wunderground v.1.15,2013-08-10 11:17:00,
2013-08-10 06:22:00,61.6,58.6,30.04,WNW,289,3.0,3.0,90,0.00,,,0.00,Wunderground v.1.15,2013-08-10 11:22:00,
2013-08-10 06:27:00,61.7,58.7,30.04,WNW,289,2.0,3.0,90,0.00,,,0.00,Wunderground v.1.15,2013-08-10 11:27:00,
2013-08-10 06:32:00,61.8,58.8,30.03,WNW,286,3.0,3.0,90,0.00,,,0.00,Wunderground v.1.15,2013-08-10 11:32:00,
2013-08-10 06:38:00,62.0,59.0,30.04,WNW,292,3.0,4.0,90,0.00,,,0.00,Wunderground v.1.15,2013-08-10 11:38:00,
2013-08-10 06:43:00,62.1,59.1,30.04,WNW,291,3.0,5.0,90,0.00,,,0.00,Wunderground v.1.15,2013-08-10 11:43:00,
2013-08-10 06:48:00,62.2,59.2,30.04,WNW,303,3.0,5.0,90,0.00,,,0.00,Wunderground v.1.15,2013-08-10 11:48:00,
2013-08-10 06:53:00,62.3,59.3,30.04,NW,304,4.0,4.0,90,0.00,,,0.00,Wunderground v.1.15,2013-08-10 11:53:00,
2013-08-10 06:59:00,62.5,59.5,30.04,NW,325,4.0,6.0,90,0.00,,,0.00,Wunderground v.1.15,2013-08-10 11:59:00,
2013-08-10 07:04:00,62.8,59.8,30.04,NW,317,4.0,5.0,90,0.00,,,0.00,Wunderground v.1.15,2013-08-10 12:04:00,
2013-08-10 07:09:00,63.1,60.1,30.03,NW,306,4.0,5.0,90,0.00,,,0.00,Wunderground v.1.15,2013-08-10 12:09:00,
2013-08-10 07:14:00,63.3,60.3,30.04,NW,318,4.0,5.0,90,0.00,,,0.00,Wunderground v.1.15,2013-08-10 12:14:00,
2013-08-10 07:19:00,63.6,60.6,30.04,WNW,296,4.0,5.0,90,0.00,,,0.00,Wunderground v.1.15,2013-08-10 12:19:00,
2013-08-10 07:24:00,63.9,60.6,30.04,NW,313,4.0,5.0,89,0.00,,,0.00,Wunderground v.1.15,2013-08-10 12:24:00,
2013-08-10 07:29:00,64.2,60.9,30.04,NW,317,4.0,6.0,89,0.00,,,0.00,Wunderground v.1.15,2013-08-10 12:29:00,
2013-08-10 07:34:00,64.5,61.2,30.04,NW,318,4.0,6.0,89,0.00,,,0.00,Wunderground v.1.15,2013-08-10 12:34:00,
2013-08-10 07:39:00,64.8,61.5,30.04,NW,308,4.0,7.0,89,0.00,,,0.00,Wunderground v.1.15,2013-08-10 12:39:00,
2013-08-10 07:44:00,65.0,61.7,30.04,WNW,295,5.0,5.0,89,0.00,,,0.00,Wunderground v.1.15,2013-08-10 12:44:00,
2013-08-10 07:49:00,65.2,61.6,30.04,WNW,289,5.0,6.0,88,0.00,,,0.00,Wunderground v.1.15,2013-08-10 12:49:00,
2013-08-10 07:54:00,65.6,61.9,30.04,NNW,340,5.0,6.0,88,0.00,,,0.00,Wunderground v.1.15,2013-08-10 12:54:00,
2013-08-10 07:59:00,65.8,61.8,30.05,NNW,331,5.0,6.0,87,0.00,,,0.00,Wunderground v.1.15,2013-08-10 12:59:00,
2013-08-10 08:05:00,66.2,62.2,30.05,NW,308,5.0,6.0,87,0.00,,,0.00,Wunderground v.1.15,2013-08-10 13:05:00,
2013-08-10 08:10:00,66.4,62.4,30.05,NNW,339,5.0,5.0,87,0.00,,,0.00,Wunderground v.1.15,2013-08-10 13:10:00,
2013-08-10 08:15:00,66.5,62.2,30.05,NNW,348,5.0,8.0,86,0.00,,,0.00,Wunderground v.1.15,2013-08-10 13:15:00,
2013-08-10 08:20:00,66.7,62.7,30.05,NNW,347,5.0,6.0,87,0.00,,,0.00,Wunderground v.1.15,2013-08-10 13:20:00,
2013-08-10 08:25:00,67.1,62.8,30.05,NNW,342,5.0,6.0,86,0.00,,,0.00,Wunderground v.1.15,2013-08-10 13:25:00,
2013-08-10 08:30:00,67.6,63.3,30.05,NW,321,4.0,4.0,86,0.00,,,0.00,Wunderground v.1.15,2013-08-10 13:30:00,
2013-08-10 08:35:00,68.0,63.3,30.05,NW,320,4.0,5.0,85,0.00,,,0.00,Wunderground v.1.15,2013-08-10 13:35:00,
2013-08-10 08:40:00,68.3,63.6,30.05,NNW,329,3.0,4.0,85,0.00,,,0.00,Wunderground v.1.15,2013-08-10 13:40:00,
2013-08-10 08:45:00,68.8,63.8,30.05,NW,310,3.0,4.0,84,0.00,,,0.00,Wunderground v.1.15,2013-08-10 13:45:00,
2013-08-10 08:50:00,69.1,64.1,30.06,NNW,344,3.0,3.0,84,0.00,,,0.00,Wunderground v.1.15,2013-08-10 13:50:00,
2013-08-10 08:55:00,69.4,63.7,30.05,NNW,329,3.0,5.0,82,0.00,,,0.00,Wunderground v.1.15,2013-08-10 13:55:00,
2013-08-10 09:00:00,69.8,64.4,30.05,WNW,297,2.0,2.0,83,0.00,,,0.00,Wunderground v.1.15,2013-08-10 14:00:00,
2013-08-10 09:06:00,70.5,64.7,30.05,NW,323,2.0,4.0,82,0.00,,,0.00,Wunderground v.1.15,2013-08-10 14:06:00,
2013-08-10 09:11:00,70.8,64.3,30.06,North,355,2.0,3.0,80,0.00,,,0.00,Wunderground v.1.15,2013-08-10 14:11:00,
2013-08-10 09:16:00,71.3,65.2,30.06,WNW,303,3.0,3.0,81,0.00,,,0.00,Wunderground v.1.15,2013-08-10 14:16:00,
2013-08-10 09:21:00,71.3,65.2,30.06,NW,314,3.0,3.0,81,0.00,,,0.00,Wunderground v.1.15,2013-08-10 14:21:00,
2013-08-10 09:26:00,71.6,65.5,30.06,NNW,342,3.0,4.0,81,0.00,,,0.00,Wunderground v.1.15,2013-08-10 14:26:00,
2013-08-10 09:31:00,72.2,66.4,30.06,NW,317,2.0,2.0,82,0.00,,,0.00,Wunderground v.1.15,2013-08-10 14:31:00,
2013-08-10 09:36:00,72.8,66.3,30.06,West,267,1.0,3.0,80,0.00,,,0.00,Wunderground v.1.15,2013-08-10 14:36:00,
2013-08-10 09:41:00,73.1,66.2,30.07,WNW,290,1.0,3.0,79,0.00,,,0.00,Wunderground v.1.15,2013-08-10 14:41:00,
2013-08-10 09:46:00,72.9,66.0,30.07,West,261,2.0,4.0,79,0.00,,,0.00,Wunderground v.1.15,2013-08-10 14:46:00,
2013-08-10 09:51:00,73.1,66.2,30.07,NW,317,2.0,2.0,79,0.00,,,0.00,Wunderground v.1.15,2013-08-10 14:51:00,
2013-08-10 09:56:00,73.3,65.7,30.07,WNW,282,2.0,4.0,77,0.00,,,0.00,Wunderground v.1.15,2013-08-10 14:56:00,
2013-08-10 10:02:00,73.5,65.5,30.07,WNW,295,3.0,4.0,76,0.00,,,0.00,Wunderground v.1.15,2013-08-10 15:02:00,
2013-08-10 10:07:00,73.6,66.7,30.07,WNW,284,3.0,4.0,79,0.00,,,0.00,Wunderground v.1.15,2013-08-10 15:07:00,
2013-08-10 10:12:00,73.9,66.2,30.07,NW,318,3.0,6.0,77,0.00,,,0.00,Wunderground v.1.15,2013-08-10 15:12:00,
2013-08-10 10:17:00,74.0,66.3,30.07,NNW,329,3.0,6.0,77,0.00,,,0.00,Wunderground v.1.15,2013-08-10 15:17:00,
2013-08-10 10:22:00,74.5,66.8,30.07,NNW,345,4.0,5.0,77,0.00,,,0.00,Wunderground v.1.15,2013-08-10 15:22:00,
2013-08-10 10:27:00,74.8,67.1,30.07,NW,324,4.0,5.0,77,0.00,,,0.00,Wunderground v.1.15,2013-08-10 15:27:00,
2013-08-10 10:33:00,75.1,67.4,30.07,WNW,287,3.0,5.0,77,0.00,,,0.00,Wunderground v.1.15,2013-08-10 15:33:00,
2013-08-10 10:38:00,75.5,66.6,30.07,WNW,301,4.0,6.0,74,0.00,,,0.00,Wunderground v.1.15,2013-08-10 15:38:00,
2013-08-10 10:44:00,75.7,66.8,30.07,WNW,284,4.0,6.0,74,0.00,,,0.00,Wunderground v.1.15,2013-08-10 15:44:00,
2013-08-10 10:49:00,75.8,66.9,30.07,WNW,289,4.0,7.0,74,0.00,,,0.00,Wunderground v.1.15,2013-08-10 15:49:00,
2013-08-10 10:55:00,76.1,66.4,30.07,NW,313,4.0,6.0,72,0.00,,,0.00,Wunderground v.1.15,2013-08-10 15:55:00,
2013-08-10 11:00:00,76.1,66.4,30.07,WNW,298,5.0,8.0,72,0.00,,,0.00,Wunderground v.1.15,2013-08-10 16:00:00,
2013-08-10 11:06:00,76.4,65.9,30.07,North,359,5.0,8.0,70,0.00,,,0.00,Wunderground v.1.15,2013-08-10 16:06:00,
2013-08-10 11:11:00,76.5,66.8,30.07,WNW,302,5.0,7.0,72,0.00,,,0.00,Wunderground v.1.15,2013-08-10 16:11:00,
2013-08-10 11:17:00,76.4,66.7,30.07,WSW,257,5.0,9.0,72,0.00,,,0.00,Wunderground v.1.15,2013-08-10 16:17:00,
2013-08-10 11:23:00,76.4,65.9,30.07,WNW,287,4.0,6.0,70,0.00,,,0.00,Wunderground v.1.15,2013-08-10 16:23:00,
2013-08-10 11:28:00,76.6,64.4,30.07,WNW,303,5.0,6.0,66,0.00,,,0.00,Wunderground v.1.15,2013-08-10 16:28:00,
2013-08-10 11:34:00,76.9,65.1,30.07,WNW,291,5.0,6.0,67,0.00,,,0.00,Wunderground v.1.15,2013-08-10 16:34:00,
2013-08-10 11:40:00,76.8,63.2,30.07,West,271,5.0,5.0,63,0.00,,,0.00,Wunderground v.1.15,2013-08-10 16:40:00,
2013-08-10 11:45:00,77.2,65.0,30.07,NW,320,4.0,6.0,66,0.00,,,0.00,Wunderground v.1.15,2013-08-10 16:45:00,
2013-08-10 11:51:00,77.5,65.2,30.07,WNW,294,4.0,8.0,66,0.00,,,0.00,Wunderground v.1.15,2013-08-10 16:51:00,
2013-08-10 11:57:00,77.5,63.9,30.07,WNW,292,5.0,9.0,63,0.00,,,0.00,Wunderground v.1.15,2013-08-10 16:57:00,
2013-08-10 12:02:00,77.9,65.2,30.07,NW,305,4.0,7.0,65,0.00,,,0.00,Wunderground v.1.15,2013-08-10 17:02:00,
2013-08-10 12:08:00,77.8,61.8,30.07,NW,313,5.0,7.0,58,0.00,,,0.00,Wunderground v.1.15,2013-08-10 17:08:00,
2013-08-10 12:14:00,78.1,64.0,30.06,NW,318,4.0,7.0,62,0.00,,,0.00,Wunderground v.1.15,2013-08-10 17:14:00,
2013-08-10 12:20:00,78.1,62.1,30.06,WNW,302,5.0,5.0,58,0.00,,,0.00,Wunderground v.1.15,2013-08-10 17:20:00,
2013-08-10 12:25:00,78.1,63.6,30.07,NW,311,5.0,6.0,61,0.00,,,0.00,Wunderground v.1.15,2013-08-10 17:25:00,
2013-08-10 12:31:00,78.3,62.3,30.06,WNW,299,4.0,4.0,58,0.00,,,0.00,Wunderground v.1.15,2013-08-10 17:31:00,
2013-08-10 12:36:00,78.3,63.7,30.07,NW,306,5.0,9.0,61,0.00,,,0.00,Wunderground v.1.15,2013-08-10 17:36:00,
2013-08-10 12:41:00,78.2,63.2,30.06,WNW,303,6.0,6.0,60,0.00,,,0.00,Wunderground v.1.15,2013-08-10 17:41:00,
2013-08-10 12:46:00,78.3,63.3,30.07,WNW,287,6.0,9.0,60,0.00,,,0.00,Wunderground v.1.15,2013-08-10 17:46:00,
2013-08-10 12:51:00,78.5,62.5,30.07,NW,321,5.0,6.0,58,0.00,,,0.00,Wunderground v.1.15,2013-08-10 17:51:00,
2013-08-10 12:57:00,78.6,63.1,30.07,WNW,296,4.0,6.0,59,0.00,,,0.00,Wunderground v.1.15,2013-08-10 17:57:00,
2013-08-10 13:02:00,78.4,63.8,30.06,WNW,298,6.0,7.0,61,0.00,,,0.00,Wunderground v.1.15,2013-08-10 18:02:00,
2013-08-10 13:08:00,78.5,63.5,30.06,North,349,5.0,7.0,60,0.00,,,0.00,Wunderground v.1.15,2013-08-10 18:08:00,
2013-08-10 13:13:00,78.4,63.4,30.06,NW,320,6.0,7.0,60,0.00,,,0.00,Wunderground v.1.15,2013-08-10 18:13:00,
2013-08-10 13:18:00,78.5,63.5,30.06,WNW,290,7.0,8.0,60,0.00,,,0.00,Wunderground v.1.15,2013-08-10 18:18:00,
2013-08-10 13:24:00,78.6,64.0,30.06,NNW,333,5.0,7.0,61,0.00,,,0.00,Wunderground v.1.15,2013-08-10 18:24:00,
2013-08-10 13:29:00,78.6,64.0,30.06,NNW,336,6.0,8.0,61,0.00,,,0.00,Wunderground v.1.15,2013-08-10 18:29:00,
2013-08-10 13:35:00,78.2,63.6,30.07,NW,304,6.0,9.0,61,0.00,,,0.00,Wunderground v.1.15,2013-08-10 18:35:00,
2013-08-10 13:40:00,78.3,63.7,30.06,NW,306,6.0,6.0,61,0.00,,,0.00,Wunderground v.1.15,2013-08-10 18:40:00,
2013-08-10 13:46:00,78.4,62.4,30.06,WNW,303,6.0,10.0,58,0.00,,,0.00,Wunderground v.1.15,2013-08-10 18:46:00,
2013-08-10 13:52:00,78.5,63.0,30.06,NNW,335,6.0,6.0,59,0.00,,,0.00,Wunderground v.1.15,2013-08-10 18:52:00,
2013-08-10 13:57:00,78.4,63.4,30.06,NNW,331,6.0,8.0,60,0.00,,,0.00,Wunderground v.1.15,2013-08-10 18:57:00,
2013-08-10 14:03:00,78.4,63.4,30.06,NW,311,7.0,8.0,60,0.00,,,0.00,Wunderground v.1.15,2013-08-10 19:03:00,
2013-08-10 14:08:00,78.1,63.1,30.06,NNW,329,6.0,8.0,60,0.00,,,0.00,Wunderground v.1.15,2013-08-10 19:08:00,
2013-08-10 14:13:00,78.6,62.6,30.06,NW,308,5.0,6.0,58,0.00,,,0.00,Wunderground v.1.15,2013-08-10 19:13:00,
2013-08-10 14:18:00,78.7,64.1,30.06,NW,315,5.0,8.0,61,0.00,,,0.00,Wunderground v.1.15,2013-08-10 19:18:00,
2013-08-10 14:23:00,78.4,63.8,30.06,WNW,296,6.0,8.0,61,0.00,,,0.00,Wunderground v.1.15,2013-08-10 19:23:00,
2013-08-10 14:28:00,78.6,63.6,30.06,West,280,6.0,8.0,60,0.00,,,0.00,Wunderground v.1.15,2013-08-10 19:28:00,
2013-08-10 14:33:00,78.6,62.1,30.06,West,278,5.0,5.0,57,0.00,,,0.00,Wunderground v.1.15,2013-08-10 19:33:00,
2013-08-10 14:38:00,78.6,62.1,30.06,NNW,341,5.0,5.0,57,0.00,,,0.00,Wunderground v.1.15,2013-08-10 19:38:00,
2013-08-10 14:43:00,78.7,63.2,30.06,NW,315,5.0,8.0,59,0.00,,,0.00,Wunderground v.1.15,2013-08-10 19:43:00,
2013-08-10 14:48:00,78.9,62.9,30.06,WNW,291,6.0,8.0,58,0.00,,,0.00,Wunderground v.1.15,2013-08-10 19:48:00,
2013-08-10 14:54:00,79.1,62.6,30.05,NW,315,4.0,6.0,57,0.00,,,0.00,Wunderground v.1.15,2013-08-10 19:54:00,
2013-08-10 14:59:00,79.1,63.1,30.05,NW,308,5.0,6.0,58,0.00,,,0.00,Wunderground v.1.15,2013-08-10 19:59:00,
2013-08-10 15:05:00,79.2,63.6,30.05,NW,310,5.0,6.0,59,0.00,,,0.00,Wunderground v.1.15,2013-08-10 20:05:00,
2013-08-10 15:10:00,79.4,63.3,30.05,WNW,295,4.0,6.0,58,0.00,,,0.00,Wunderground v.1.15,2013-08-10 20:10:00,
2013-08-10 15:15:00,79.3,63.7,30.05,NW,317,4.0,7.0,59,0.00,,,0.00,Wunderground v.1.15,2013-08-10 20:15:00,
2013-08-10 15:20:00,79.4,64.3,30.05,NW,320,5.0,5.0,60,0.00,,,0.00,Wunderground v.1.15,2013-08-10 20:20:00,
2013-08-10 15:25:00,79.7,64.6,30.05,WNW,291,5.0,7.0,60,0.00,,,0.00,Wunderground v.1.15,2013-08-10 20:25:00,
2013-08-10 15:30:00,79.9,63.3,30.05,WNW,294,4.0,4.0,57,0.00,,,0.00,Wunderground v.1.15,2013-08-10 20:30:00,
2013-08-10 15:35:00,78.7,62.7,30.05,NW,315,5.0,7.0,58,0.00,,,0.00,Wunderground v.1.15,2013-08-10 20:35:00,
2013-08-10 15:40:00,78.5,63.0,30.04,NNW,332,5.0,5.0,59,0.00,,,0.00,Wunderground v.1.15,2013-08-10 20:40:00,
2013-08-10 15:46:00,78.3,64.2,30.04,WNW,294,4.0,5.0,62,0.00,,,0.00,Wunderground v.1.15,2013-08-10 20:46:00,
2013-08-10 15:51:00,79.0,63.9,30.04,WNW,301,4.0,8.0,60,0.00,,,0.00,Wunderground v.1.15,2013-08-10 20:51:00,
2013-08-10 15:56:00,78.4,63.4,30.04,WNW,295,6.0,8.0,60,0.00,,,0.00,Wunderground v.1.15,2013-08-10 20:56:00,
2013-08-10 16:01:00,77.6,63.1,30.04,NW,313,5.0,7.0,61,0.00,,,0.00,Wunderground v.1.15,2013-08-10 21:01:00,
2013-08-10 16:06:00,78.3,63.3,30.03,NNW,334,5.0,7.0,60,0.00,,,0.00,Wunderground v.1.15,2013-08-10 21:06:00,
2013-08-10 16:11:00,78.4,65.2,30.03,NW,310,5.0,5.0,64,0.00,,,0.00,Wunderground v.1.15,2013-08-10 21:11:00,
2013-08-10 16:16:00,78.5,63.9,30.03,WNW,297,4.0,7.0,61,0.00,,,0.00,Wunderground v.1.15,2013-08-10 21:16:00,
2013-08-10 16:22:00,77.9,63.4,30.03,NNW,328,6.0,6.0,61,0.00,,,0.00,Wunderground v.1.15,2013-08-10 21:22:00,
2013-08-10 16:27:00,77.8,64.6,30.03,WNW,291,6.0,6.0,64,0.00,,,0.00,Wunderground v.1.15,2013-08-10 21:27:00,
2013-08-10 16:32:00,77.9,63.4,30.03,WNW,299,4.0,7.0,61,0.00,,,0.00,Wunderground v.1.15,2013-08-10 21:32:00,
2013-08-10 16:38:00,77.6,63.5,30.03,NW,323,5.0,7.0,62,0.00,,,0.00,Wunderground v.1.15,2013-08-10 21:38:00,
2013-08-10 16:44:00,78.5,62.5,30.03,NNW,344,4.0,6.0,58,0.00,,,0.00,Wunderground v.1.15,2013-08-10 21:44:00,
2013-08-10 16:49:00,78.9,63.8,30.03,NNW,339,4.0,6.0,60,0.00,,,0.00,Wunderground v.1.15,2013-08-10 21:49:00,
2013-08-10 16:55:00,78.8,62.8,30.03,NNW,333,5.0,9.0,58,0.00,,,0.00,Wunderground v.1.15,2013-08-10 21:55:00,
2013-08-10 17:00:00,78.6,63.1,30.03,NNW,331,6.0,6.0,59,0.00,,,0.00,Wunderground v.1.15,2013-08-10 22:00:00,
2013-08-10 17:06:00,78.3,63.3,30.03,NW,313,7.0,9.0,60,0.00,,,0.00,Wunderground v.1.15,2013-08-10 22:06:00,
2013-08-10 17:12:00,77.3,63.7,30.03,WNW,299,6.0,7.0,63,0.00,,,0.00,Wunderground v.1.15,2013-08-10 22:12:00,
2013-08-10 17:17:00,76.5,64.3,30.03,NNW,329,5.0,9.0,66,0.00,,,0.00,Wunderground v.1.15,2013-08-10 22:17:00,
2013-08-10 17:22:00,76.5,63.4,30.03,NW,326,5.0,8.0,64,0.00,,,0.00,Wunderground v.1.15,2013-08-10 22:22:00,
2013-08-10 17:27:00,77.2,63.2,30.03,NNW,335,6.0,9.0,62,0.00,,,0.00,Wunderground v.1.15,2013-08-10 22:27:00,
2013-08-10 17:33:00,76.6,63.1,30.03,WNW,291,6.0,6.0,63,0.00,,,0.00,Wunderground v.1.15,2013-08-10 22:33:00,
2013-08-10 17:38:00,76.8,62.8,30.03,NW,311,5.0,6.0,62,0.00,,,0.00,Wunderground v.1.15,2013-08-10 22:38:00,
2013-08-10 17:43:00,76.9,63.8,30.03,NW,307,4.0,4.0,64,0.00,,,0.00,Wunderground v.1.15,2013-08-10 22:43:00,
2013-08-10 17:48:00,77.4,63.4,30.03,NW,307,4.0,7.0,62,0.00,,,0.00,Wunderground v.1.15,2013-08-10 22:48:00,
2013-08-10 17:53:00,77.8,63.7,30.03,NW,320,4.0,6.0,62,0.00,,,0.00,Wunderground v.1.15,2013-08-10 22:53:00,
2013-08-10 17:58:00,77.7,63.6,30.03,NW,326,5.0,7.0,62,0.00,,,0.00,Wunderground v.1.15,2013-08-10 22:58:00,
2013-08-10 18:03:00,77.5,63.0,30.03,WNW,291,6.0,8.0,61,0.00,,,0.00,Wunderground v.1.15,2013-08-10 23:03:00,
2013-08-10 18:08:00,77.4,62.4,30.03,NW,307,6.0,8.0,60,0.00,,,0.00,Wunderground v.1.15,2013-08-10 23:08:00,
2013-08-10 18:13:00,77.2,62.2,30.03,WNW,284,6.0,6.0,60,0.00,,,0.00,Wunderground v.1.15,2013-08-10 23:13:00,
2013-08-10 18:19:00,77.1,63.5,30.03,NW,310,5.0,6.0,63,0.00,,,0.00,Wunderground v.1.15,2013-08-10 23:19:00,
2013-08-10 18:25:00,76.8,63.7,30.03,WNW,299,4.0,6.0,64,0.00,,,0.00,Wunderground v.1.15,2013-08-10 23:25:00,
2013-08-10 18:31:00,76.6,63.1,30.03,WNW,299,4.0,6.0,63,0.00,,,0.00,Wunderground v.1.15,2013-08-10 23:31:00,
2013-08-10 18:36:00,76.3,63.2,30.03,WNW,295,4.0,6.0,64,0.00,,,0.00,Wunderground v.1.15,2013-08-10 23:36:00,
2013-08-10 18:41:00,76.1,63.0,30.03,NW,316,4.0,4.0,64,0.00,,,0.00,Wunderground v.1.15,2013-08-10 23:41:00,
2013-08-10 18:46:00,75.9,63.3,30.03,NW,312,3.0,4.0,65,0.00,,,0.00,Wunderground v.1.15,2013-08-10 23:46:00,
2013-08-10 18:51:00,75.5,63.3,30.03,WNW,301,3.0,4.0,66,0.00,,,0.00,Wunderground v.1.15,2013-08-10 23:51:00,
2013-08-10 18:56:00,75.2,63.5,30.03,WNW,297,3.0,5.0,67,0.00,,,0.00,Wunderground v.1.15,2013-08-10 23:56:00,
2013-08-10 19:02:00,75.1,64.2,30.03,WNW,287,3.0,3.0,69,0.00,,,0.00,Wunderground v.1.15,2013-08-11 00:02:00,
2013-08-10 19:07:00,74.8,64.8,30.03,West,277,2.0,3.0,71,0.00,,,0.00,Wunderground v.1.15,2013-08-11 00:07:00,
2013-08-10 19:12:00,74.4,64.8,30.03,West,277,2.0,3.0,72,0.00,,,0.00,Wunderground v.1.15,2013-08-11 00:12:00,
2013-08-10 19:17:00,74.0,64.4,30.03,WNW,282,2.0,4.0,72,0.00,,,0.00,Wunderground v.1.15,2013-08-11 00:17:00,
2013-08-10 19:22:00,73.5,64.3,30.03,WNW,285,3.0,3.0,73,0.00,,,0.00,Wunderground v.1.15,2013-08-11 00:22:00,
2013-08-10 19:27:00,73.1,64.3,30.02,WNW,282,2.0,3.0,74,0.00,,,0.00,Wunderground v.1.15,2013-08-11 00:27:00,
2013-08-10 19:32:00,72.5,64.1,30.03,WNW,282,2.0,2.0,75,0.00,,,0.00,Wunderground v.1.15,2013-08-11 00:32:00,
2013-08-10 19:37:00,71.8,63.8,30.02,WNW,287,2.0,3.0,76,0.00,,,0.00,Wunderground v.1.15,2013-08-11 00:37:00,
2013-08-10 19:42:00,71.2,64.0,30.02,WNW,288,2.0,2.0,78,0.00,,,0.00,Wunderground v.1.15,2013-08-11 00:42:00,
2013-08-10 19:48:00,70.2,63.7,30.02,WNW,300,1.0,2.0,80,0.00,,,0.00,Wunderground v.1.15,2013-08-11 00:48:00,
2013-08-10 19:54:00,69.6,63.5,30.02,WNW,291,2.0,2.0,81,0.00,,,0.00,Wunderground v.1.15,2013-08-11 00:54:00,
2013-08-10 19:59:00,69.1,63.4,30.03,WNW,287,2.0,3.0,82,0.00,,,0.00,Wunderground v.1.15,2013-08-11 00:59:00,
2013-08-10 20:04:00,68.7,63.0,30.03,WNW,282,2.0,2.0,82,0.00,,,0.00,Wunderground v.1.15,2013-08-11 01:04:00,
2013-08-10 20:09:00,68.3,62.9,30.03,WNW,288,2.0,3.0,83,0.00,,,0.00,Wunderground v.1.15,2013-08-11 01:09:00,
2013-08-10 20:14:00,68.0,63.0,30.03,WNW,287,3.0,3.0,84,0.00,,,0.00,Wunderground v.1.15,2013-08-11 01:14:00,
2013-08-10 20:19:00,67.5,62.5,30.03,WNW,287,3.0,3.0,84,0.00,,,0.00,Wunderground v.1.15,2013-08-11 01:19:00,
2013-08-10 20:24:00,67.1,62.4,30.04,WNW,284,3.0,3.0,85,0.00,,,0.00,Wunderground v.1.15,2013-08-11 01:24:00,
2013-08-10 20:30:00,66.8,62.1,30.04,WNW,284,3.0,3.0,85,0.00,,,0.00,Wunderground v.1.15,2013-08-11 01:30:00,
2013-08-10 20:35:00,66.8,61.8,30.04,WNW,292,3.0,4.0,84,0.00,,,0.00,Wunderground v.1.15,2013-08-11 01:35:00,
2013-08-10 20:40:00,66.9,61.9,30.04,WNW,287,4.0,4.0,84,0.00,,,0.00,Wunderground v.1.15,2013-08-11 01:40:00,
2013-08-10 20:45:00,66.8,61.8,30.05,WNW,288,4.0,5.0,84,0.00,,,0.00,Wunderground v.1.15,2013-08-11 01:45:00,
2013-08-10 20:50:00,66.9,61.6,30.05,WNW,291,4.0,4.0,83,0.00,,,0.00,Wunderground v.1.15,2013-08-11 01:50:00,
2013-08-10 20:56:00,66.8,61.5,30.05,WNW,295,5.0,5.0,83,0.00,,,0.00,Wunderground v.1.15,2013-08-11 01:56:00,
2013-08-10 21:01:00,66.7,61.7,30.05,WNW,291,5.0,5.0,84,0.00,,,0.00,Wunderground v.1.15,2013-08-11 02:01:00,
2013-08-10 21:06:00,66.4,61.4,30.05,WNW,291,5.0,5.0,84,0.00,,,0.00,Wunderground v.1.15,2013-08-11 02:06:00,
2013-08-10 21:11:00,66.1,61.5,30.06,WNW,287,4.0,5.0,85,0.00,,,0.00,Wunderground v.1.15,2013-08-11 02:11:00,
2013-08-10 21:17:00,65.6,61.0,30.06,WNW,295,4.0,5.0,85,0.00,,,0.00,Wunderground v.1.15,2013-08-11 02:17:00,
2013-08-10 21:22:00,65.3,61.0,30.06,WNW,292,4.0,4.0,86,0.00,,,0.00,Wunderground v.1.15,2013-08-11 02:22:00,
2013-08-10 21:27:00,65.0,60.7,30.06,WNW,293,4.0,4.0,86,0.00,,,0.00,Wunderground v.1.15,2013-08-11 02:27:00,
2013-08-10 21:32:00,64.9,60.6,30.06,WNW,297,3.0,4.0,86,0.00,,,0.00,Wunderground v.1.15,2013-08-11 02:32:00,
2013-08-10 21:37:00,64.6,60.3,30.06,WNW,289,3.0,4.0,86,0.00,,,0.00,Wunderground v.1.15,2013-08-11 02:37:00,
2013-08-10 21:42:00,64.4,60.1,30.06,WNW,284,3.0,3.0,86,0.00,,,0.00,Wunderground v.1.15,2013-08-11 02:42:00,
2013-08-10 21:47:00,64.2,60.2,30.06,WNW,288,3.0,3.0,87,0.00,,,0.00,Wunderground v.1.15,2013-08-11 02:47:00,
2013-08-10 21:53:00,63.9,60.0,30.06,WNW,287,3.0,3.0,87,0.00,,,0.00,Wunderground v.1.15,2013-08-11 02:53:00,
2013-08-10 21:58:00,63.7,59.8,30.07,WNW,291,3.0,3.0,87,0.00,,,0.00,Wunderground v.1.15,2013-08-11 02:58:00,
2013-08-10 22:04:00,63.5,59.6,30.07,WNW,291,3.0,4.0,87,0.00,,,0.00,Wunderground v.1.15,2013-08-11 03:04:00,
2013-08-10 22:09:00,63.2,59.6,30.07,WNW,289,3.0,4.0,88,0.00,,,0.00,Wunderground v.1.15,2013-08-11 03:09:00,
2013-08-10 22:15:00,63.0,59.4,30.07,WNW,295,3.0,4.0,88,0.00,,,0.00,Wunderground v.1.15,2013-08-11 03:15:00,
2013-08-10 22:21:00,62.8,59.2,30.07,WNW,289,3.0,3.0,88,0.00,,,0.00,Wunderground v.1.15,2013-08-11 03:21:00,
2013-08-10 22:27:00,62.6,59.0,30.06,WNW,289,3.0,3.0,88,0.00,,,0.00,Wunderground v.1.15,2013-08-11 03:27:00,
2013-08-10 22:32:00,62.6,59.0,30.07,WNW,288,2.0,2.0,88,0.00,,,0.00,Wunderground v.1.15,2013-08-11 03:32:00,
2013-08-10 22:38:00,62.4,58.8,30.07,WNW,287,2.0,3.0,88,0.00,,,0.00,Wunderground v.1.15,2013-08-11 03:38:00,
2013-08-10 22:44:00,62.1,58.5,30.07,WNW,288,2.0,3.0,88,0.00,,,0.00,Wunderground v.1.15,2013-08-11 03:44:00,
2013-08-10 22:51:00,61.8,58.5,30.07,WNW,288,2.0,3.0,89,0.00,,,0.00,Wunderground v.1.15,2013-08-11 03:51:00,
2013-08-10 22:57:00,61.8,58.5,30.07,WNW,286,2.0,3.0,89,0.00,,,0.00,Wunderground v.1.15,2013-08-11 03:57:00,
2013-08-10 23:01:00,61.8,58.5,30.07,WNW,287,3.0,3.0,89,0.00,,,0.00,Wunderground v.1.15,2013-08-11 04:01:00,
2013-08-10 23:03:00,61.8,58.2,30.07,WNW,287,3.0,3.0,88,0.00,,,0.00,Wunderground v.1.15,2013-08-11 04:03:00,
2013-08-10 23:06:00,61.8,58.2,30.07,WNW,287,3.0,3.0,88,0.00,,,0.00,Wunderground v.1.15,2013-08-11 04:06:00,
2013-08-10 23:10:00,61.9,58.3,30.07,WNW,287,3.0,3.0,88,0.00,,,0.00,Wunderground v.1.15,2013-08-11 04:10:00,
2013-08-10 23:15:00,61.9,58.3,30.07,WNW,287,3.0,3.0,88,0.00,,,0.00,Wunderground v.1.15,2013-08-11 04:15:00,
2013-08-10 23:20:00,61.8,58.2,30.07,WNW,287,3.0,3.0,88,0.00,,,0.00,Wunderground v.1.15,2013-08-11 04:20:00,
2013-08-10 23:25:00,61.6,58.0,30.07,WNW,288,3.0,3.0,88,0.00,,,0.00,Wunderground v.1.15,2013-08-11 04:25:00,
2013-08-10 23:31:00,61.8,58.2,30.07,WNW,287,3.0,3.0,88,0.00,,,0.00,Wunderground v.1.15,2013-08-11 04:31:00,
2013-08-10 23:36:00,61.8,58.2,30.07,WNW,287,3.0,3.0,88,0.00,,,0.00,Wunderground v.1.15,2013-08-11 04:36:00,
2013-08-10 23:41:00,62.0,58.1,30.07,WNW,287,3.0,4.0,87,0.00,,,0.00,Wunderground v.1.15,2013-08-11 04:41:00,
2013-08-10 23:47:00,62.1,58.2,30.07,WNW,287,4.0,4.0,87,0.00,,,0.00,Wunderground v.1.15,2013-08-11 04:47:00,
2013-08-10 23:53:00,62.1,58.2,30.07,WNW,287,4.0,4.0,87,0.00,,,0.00,Wunderground v.1.15,2013-08-11 04:53:00,
2013-08-10 23:58:00,61.9,58.0,30.07,WNW,284,3.0,4.0,87,0.00,,,0.00,Wunderground v.1.15,2013-08-11 04:58:00,